Alleyton, Texas
Current Conditions -  °F | °C
As of 3:35 PM on Friday 31 Oct 2014 (Local Time) from K66R Reporting Station
Clear Clear  
Wind Chill: 25°   Ceiling: Unl
Heat Index: 25°   Visibility: 10mi
Dew Point:   Wind: 16mph
Humidity: 28%   Direction: 340°NNW
Pressure: 30.16"   Gusts: 21mph
Location:  29.71°N, 96.49°W
Report Text: K66R 312035Z AUTO 34014G18KT 10SM CLR 25/06 A3016 RMK AO2 T02510055
Loading
Personal Weather Stations






























Interactive Weather Map
Tropical Storm Tracking
New forecast layout! Learn more

10-Day Weather Forecast

Advertisements
Track Severe Weather on mobile